Time;durP1;ratioP1;P1;durP2;ratioP2;P2;SDS_P1;SDS_P2;PMS_P1;PMS_P2;Temp;Humidity;BMP_temperature;BMP_pressure;BME280_temperature;BME280_humidity;BME280_pressure;Samples;Min_cycle;Max_cycle;Signal;HPM_P1;HPM_P2
2022/11/10 07:06:26;;;;;;;13.00;4.68;;;;;;;9.01;100.00;101950.00;5322051;27;20388;-66
2022/11/10 07:08:57;;;;;;;14.38;4.60;;;;;;;8.97;100.00;101948.81;5322658;28;20027;-66
2022/11/10 07:11:29;;;;;;;12.63;4.40;;;;;;;8.99;100.00;101956.88;5322588;28;20063;-66
2022/11/10 07:14:00;;;;;;;9.25;3.42;;;;;;;9.05;100.00;101956.72;5306047;28;20035;-66
2022/11/10 07:16:31;;;;;;;10.52;4.35;;;;;;;9.05;100.00;101965.03;5301185;28;20525;-66
2022/11/10 07:19:02;;;;;;;13.40;3.60;;;;;;;9.07;100.00;101976.66;5301474;28;20025;-66
2022/11/10 07:21:34;;;;;;;10.02;5.20;;;;;;;9.12;100.00;101984.22;5300164;28;20021;-66
2022/11/10 07:24:06;;;;;;;11.38;4.10;;;;;;;9.16;100.00;101979.88;5300710;28;20028;-66
2022/11/10 07:26:37;;;;;;;11.50;4.60;;;;;;;9.21;100.00;101988.25;5304135;28;20028;-66
2022/11/10 07:29:08;;;;;;;18.08;4.03;;;;;;;9.19;100.00;101990.44;5318900;28;20028;-67
2022/11/10 07:31:39;;;;;;;10.45;3.65;;;;;;;9.20;100.00;101997.63;5310337;28;20028;-67
2022/11/10 07:34:17;;;;;;;10.07;4.10;;;;;;;9.24;100.00;102017.34;5321299;28;20110;-67
2022/11/10 07:36:48;;;;;;;13.18;4.15;;;;;;;9.24;100.00;102011.81;5306676;28;20126;-67
2022/11/10 07:39:20;;;;;;;9.82;4.00;;;;;;;9.26;100.00;102012.41;5312085;28;20039;-67
2022/11/10 07:41:51;;;;;;;11.80;4.10;;;;;;;9.24;100.00;102014.59;5321415;28;20020;-66
2022/11/10 07:44:23;;;;;;;8.50;3.63;;;;;;;9.44;100.00;102016.84;5303516;28;20123;-66
2022/11/10 07:46:54;;;;;;;11.93;4.40;;;;;;;9.37;100.00;102017.00;5301437;28;20020;-65
2022/11/10 07:49:25;;;;;;;11.38;4.20;;;;;;;9.35;100.00;102010.88;5300402;28;20052;-65
2022/11/10 07:51:57;;;;;;;8.48;3.72;;;;;;;9.35;100.00;102014.47;5300699;28;20103;-65
2022/11/10 07:54:28;;;;;;;11.00;4.53;;;;;;;9.34;100.00;102010.03;5304296;28;20025;-66
2022/11/10 07:56:59;;;;;;;8.55;3.72;;;;;;;9.42;100.00;102019.00;5299583;28;20111;-65
2022/11/10 07:59:30;;;;;;;11.73;4.53;;;;;;;9.40;100.00;102021.19;5304266;28;20493;-66
2022/11/10 08:02:02;;;;;;;12.55;5.15;;;;;;;9.43;100.00;102029.81;5316824;28;20031;-66
2022/11/10 08:04:33;;;;;;;17.48;5.13;;;;;;;9.51;100.00;102034.97;5317566;28;20046;-66
2022/11/10 08:07:04;;;;;;;9.50;4.47;;;;;;;9.56;100.00;102036.94;5342761;28;20080;-65
2022/11/10 08:09:36;;;;;;;13.25;4.82;;;;;;;9.51;100.00;102032.19;5342176;28;20027;-66
2022/11/10 08:12:10;;;;;;;12.70;4.03;;;;;;;9.55;100.00;102044.41;5343020;28;20030;-66
2022/11/10 08:14:41;;;;;;;11.98;4.45;;;;;;;9.54;100.00;102044.69;5342699;28;20031;-67
2022/11/10 08:17:12;;;;;;;14.32;4.65;;;;;;;9.62;100.00;102063.63;5323101;28;20028;-66
2022/11/10 08:19:46;;;;;;;13.13;4.05;;;;;;;9.67;100.00;102068.44;5306490;28;20513;-66
2022/11/10 08:22:18;;;;;;;10.77;4.55;;;;;;;9.62;100.00;102066.41;5319139;28;20519;-66
2022/11/10 08:24:49;;;;;;;14.38;4.50;;;;;;;9.66;100.00;102064.78;5306165;28;20116;-66
2022/11/10 08:27:21;;;;;;;10.98;4.93;;;;;;;9.71;100.00;102064.03;5320970;28;20085;-66
2022/11/10 08:29:52;;;;;;;12.00;4.00;;;;;;;9.84;100.00;102063.66;5328401;28;20030;-66
2022/11/10 08:32:24;;;;;;;9.07;3.92;;;;;;;9.86;100.00;102064.25;5327742;28;20058;-66
2022/11/10 08:34:55;;;;;;;16.90;4.20;;;;;;;9.85;100.00;102064.53;5308439;28;20543;-67
2022/11/10 08:37:26;;;;;;;7.95;3.50;;;;;;;9.88;100.00;102075.94;5308467;28;20035;-66
2022/11/10 08:39:58;;;;;;;8.05;4.15;;;;;;;9.94;100.00;102080.44;5309980;28;20031;-67
2022/11/10 08:42:29;;;;;;;12.32;3.90;;;;;;;9.95;100.00;102076.59;5306973;28;20081;-66
2022/11/10 08:45:00;;;;;;;11.95;3.80;;;;;;;9.98;100.00;102076.06;5305797;28;20031;-66
2022/11/10 08:47:31;;;;;;;17.50;4.82;;;;;;;10.01;100.00;102074.72;5306714;28;20086;-66
2022/11/10 08:50:05;;;;;;;16.48;5.70;;;;;;;10.07;100.00;102083.94;5306754;28;20058;-66
2022/11/10 08:52:36;;;;;;;11.45;4.03;;;;;;;10.08;100.00;102085.63;5305686;28;20036;-65
2022/11/10 08:55:08;;;;;;;14.07;3.55;;;;;;;10.09;100.00;102087.31;5317238;28;20382;-67
2022/11/10 08:57:39;;;;;;;12.52;4.05;;;;;;;10.15;100.00;102087.13;5306274;28;20055;-66
2022/11/10 09:00:15;;;;;;;10.35;4.82;;;;;;;10.26;100.00;102096.41;5305607;28;20016;-66
2022/11/10 09:02:46;;;;;;;14.95;6.75;;;;;;;10.25;100.00;102103.03;5306273;28;20028;-66
2022/11/10 09:05:17;;;;;;;8.23;4.43;;;;;;;10.28;100.00;102102.59;5306599;28;20151;-67
2022/11/10 09:07:49;;;;;;;12.88;4.38;;;;;;;10.29;100.00;102104.25;5304848;28;20023;-65
2022/11/10 09:10:20;;;;;;;13.18;4.38;;;;;;;10.39;100.00;102106.31;5306157;28;20020;-66
2022/11/10 09:12:52;;;;;;;12.50;3.63;;;;;;;10.41;100.00;102110.50;5314941;28;20072;-66
2022/11/10 09:15:23;;;;;;;12.13;3.60;;;;;;;10.53;100.00;102109.53;5314466;28;20403;-67
2022/11/10 09:17:59;;;;;;;14.05;5.15;;;;;;;10.50;100.00;102116.44;5305990;28;20069;-66
2022/11/10 09:20:32;;;;;;;14.93;4.15;;;;;;;10.56;100.00;102120.13;5305025;28;20048;-66
2022/11/10 09:23:17;;;;;;;16.33;4.32;;;;;;;10.57;100.00;102122.63;5306260;28;20379;-66
2022/11/10 09:25:51;;;;;;;17.13;5.88;;;;;;;10.68;100.00;102123.59;5305557;28;20071;-66
2022/11/10 09:28:23;;;;;;;18.85;4.30;;;;;;;10.68;100.00;102123.59;5305407;28;20114;-66
2022/11/10 09:30:54;;;;;;;12.85;4.00;;;;;;;10.73;100.00;102114.50;5326790;28;20534;-66
2022/11/10 09:33:25;;;;;;;14.90;4.05;;;;;;;10.81;99.78;102116.78;5324944;28;20028;-66
2022/11/10 09:35:58;;;;;;;15.07;4.68;;;;;;;10.81;99.90;102117.66;5314287;28;20026;-65
2022/11/10 09:38:29;;;;;;;15.70;4.55;;;;;;;10.83;99.26;102120.97;5326463;28;20023;-65
2022/11/10 09:41:07;;;;;;;12.50;4.70;;;;;;;10.92;98.92;102118.59;5325553;28;20102;-65
2022/11/10 09:43:44;;;;;;;11.57;4.60;;;;;;;10.95;99.60;102111.69;5324605;28;20028;-65
2022/11/10 09:46:37;;;;;;;11.40;4.10;;;;;;;11.04;99.00;102126.75;5314665;28;20036;-68
2022/11/10 09:49:32;;;;;;;13.27;4.38;;;;;;;11.10;98.70;102125.72;5304353;28;20028;-67
2022/11/10 09:52:05;;;;;;;14.57;4.20;;;;;;;11.12;98.54;102131.00;5306000;28;20020;-67
2022/11/10 09:54:50;;;;;;;18.10;5.53;;;;;;;11.19;97.31;102137.19;5305826;28;20333;-65
2022/11/10 09:57:24;;;;;;;12.70;4.03;;;;;;;11.28;98.10;102139.22;5306692;28;20081;-65
2022/11/10 09:59:55;;;;;;;13.38;4.55;;;;;;;11.29;97.49;102121.44;5305190;28;20023;-65
2022/11/10 10:02:36;;;;;;;14.18;4.32;;;;;;;11.39;97.12;102117.09;5305303;28;20031;-66
2022/11/10 10:05:30;;;;;;;8.73;3.83;;;;;;;11.46;97.34;102124.13;5325473;28;20093;-66
2022/11/10 10:08:10;;;;;;;13.68;5.13;;;;;;;11.59;96.58;102133.94;5325825;28;20051;-65
2022/11/10 10:11:20;;;;;;;9.85;3.88;;;;;;;11.60;95.80;102130.06;5325091;28;20030;-65
2022/11/10 10:14:22;;;;;;;9.25;3.88;;;;;;;11.67;95.58;102130.66;5276877;28;20051;-66
2022/11/10 10:17:14;;;;;;;10.90;3.72;;;;;;;11.78;95.44;102139.09;5303502;28;20131;-64
2022/11/10 10:19:55;;;;;;;11.30;4.10;;;;;;;11.82;94.00;102154.13;5292564;28;20019;-63
2022/11/10 10:22:54;;;;;;;13.25;4.43;;;;;;;11.94;94.06;102152.03;5325668;28;20023;-65
2022/11/10 10:25:26;;;;;;;11.13;4.25;;;;;;;11.95;93.11;102157.31;5325725;28;20106;-65
2022/11/10 10:28:05;;;;;;;11.60;4.38;;;;;;;12.01;93.33;102158.19;5307202;28;20032;-65
2022/11/10 10:30:36;;;;;;;11.05;6.65;;;;;;;12.05;92.61;102151.00;5303793;28;20101;-66
2022/11/10 10:33:17;;;;;;;11.30;3.50;;;;;;;12.13;93.58;102164.41;5304434;28;20107;-66
2022/11/10 10:35:49;;;;;;;11.70;4.72;;;;;;;12.15;92.71;102167.75;5304624;28;20030;-65
2022/11/10 10:38:32;;;;;;;8.40;3.65;;;;;;;12.22;92.61;102175.88;5321861;28;20073;-67
2022/11/10 10:41:15;;;;;;;9.02;4.03;;;;;;;12.31;93.10;102178.97;5323569;28;20486;-65
2022/11/10 10:43:48;;;;;;;9.65;3.50;;;;;;;12.39;91.92;102192.38;5325335;28;20430;-65
2022/11/10 10:46:25;;;;;;;9.90;4.00;;;;;;;12.40;90.65;102191.28;5324367;28;20027;-65
2022/11/10 10:49:15;;;;;;;13.98;5.57;;;;;;;12.47;90.75;102205.75;5324217;28;20445;-67
2022/11/10 10:51:47;;;;;;;14.63;4.65;;;;;;;12.54;90.09;102209.16;5324672;28;20032;-66
2022/11/10 10:54:25;;;;;;;12.98;6.45;;;;;;;12.57;90.11;102205.81;5314623;28;20133;-66
2022/11/10 10:57:23;;;;;;;8.98;4.80;;;;;;;12.66;89.82;102208.13;5314336;28;20118;-66
2022/11/10 11:00:22;;;;;;;8.25;3.97;;;;;;;12.74;88.11;102204.81;5322224;28;20103;-66
2022/11/10 11:03:01;;;;;;;9.65;4.22;;;;;;;12.74;86.71;102208.41;5323243;28;20030;-65
2022/11/10 11:05:32;;;;;;;7.45;2.75;;;;;;;12.82;86.30;102202.31;5321582;28;20451;-66
2022/11/10 11:08:04;;;;;;;10.93;3.08;;;;;;;12.87;86.55;102197.91;5308659;28;20035;-66
2022/11/10 11:10:44;;;;;;;19.17;9.25;;;;;;;12.95;86.11;102205.72;5303458;28;20039;-67
2022/11/10 11:13:22;;;;;;;9.73;3.47;;;;;;;12.99;85.40;102185.41;5319269;28;20030;-66
2022/11/10 11:15:58;;;;;;;8.93;4.20;;;;;;;13.05;85.73;102189.88;5324585;28;20127;-66
2022/11/10 11:18:31;;;;;;;9.23;3.50;;;;;;;13.13;85.23;102194.09;5324122;28;20030;-66
2022/11/10 11:21:27;;;;;;;9.10;3.25;;;;;;;13.18;84.38;102205.22;5303353;28;20036;-65
2022/11/10 11:24:19;;;;;;;5.88;2.83;;;;;;;13.20;84.24;102196.63;5303844;28;20467;-66
2022/11/10 11:27:43;;;;;;;8.18;2.97;;;;;;;13.26;83.66;102192.72;5302886;28;20020;-65
2022/11/10 11:30:22;;;;;;;6.50;2.83;;;;;;;13.26;83.15;102188.00;5231269;28;20047;-66
2022/11/10 11:33:02;;;;;;;7.20;3.00;;;;;;;13.33;82.69;102195.28;5303836;28;20057;-68
2022/11/10 11:35:46;;;;;;;8.75;2.60;;;;;;;13.42;82.23;102194.47;5303527;28;20404;-66
2022/11/10 11:38:41;;;;;;;8.38;2.53;;;;;;;13.57;82.86;102207.56;5303940;28;20032;-66
2022/11/10 11:41:32;;;;;;;10.57;3.00;;;;;;;13.73;82.00;102219.59;5302725;28;20115;-65
2022/11/10 11:44:37;;;;;;;23.67;19.13;;;;;;;13.74;80.50;102223.22;5303297;28;20050;-65
2022/11/10 11:47:23;;;;;;;11.35;3.17;;;;;;;13.77;80.04;102226.28;5310506;28;20498;-65
2022/11/10 11:50:05;;;;;;;9.02;3.00;;;;;;;13.74;80.07;102229.63;5324631;28;20378;-65
2022/11/10 11:52:56;;;;;;;12.05;5.45;;;;;;;13.76;79.96;102224.59;5327626;28;20032;-65
2022/11/10 11:55:59;;;;;;;7.95;2.33;;;;;;;13.75;79.44;102224.88;5327589;28;20252;-66
2022/11/10 11:58:56;;;;;;;10.40;3.05;;;;;;;13.72;79.54;102243.00;5328550;28;20032;-66
2022/11/10 12:01:52;;;;;;;8.10;3.17;;;;;;;13.75;80.11;102228.50;5324925;28;20437;-68
2022/11/10 12:04:36;;;;;;;9.80;2.75;;;;;;;13.79;79.74;102238.00;5306817;28;20070;-67
2022/11/10 12:07:16;;;;;;;8.15;2.58;;;;;;;13.80;79.14;102239.66;5307222;28;20028;-67
2022/11/10 12:09:50;;;;;;;7.93;2.85;;;;;;;13.84;78.73;102259.47;5306574;28;20024;-69
2022/11/10 12:12:33;;;;;;;5.65;2.45;;;;;;;13.83;78.48;102258.63;5307391;28;20020;-68
2022/11/10 12:15:38;;;;;;;7.78;2.30;;;;;;;13.91;79.16;102260.88;5307036;28;20032;-66
2022/11/10 12:18:33;;;;;;;7.38;2.50;;;;;;;13.93;78.14;102243.84;5265458;28;20043;-65
2022/11/10 12:21:32;;;;;;;8.27;3.38;;;;;;;13.99;77.81;102250.28;5306903;28;20032;-65
2022/11/10 12:24:18;;;;;;;12.30;3.10;;;;;;;13.92;77.95;102248.59;5305564;28;20035;-64
2022/11/10 12:27:12;;;;;;;7.32;3.03;;;;;;;14.01;79.17;102259.19;5306686;28;20030;-64
2022/11/10 12:29:51;;;;;;;10.73;2.58;;;;;;;14.05;78.57;102257.53;5305887;28;20035;-65
2022/11/10 12:32:42;;;;;;;6.80;3.20;;;;;;;14.03;77.59;102256.97;5306680;28;20020;-65
2022/11/10 12:35:19;;;;;;;8.25;3.10;;;;;;;14.08;77.85;102257.78;5307209;28;20020;-65
2022/11/10 12:38:22;;;;;;;7.68;5.95;;;;;;;14.12;78.06;102266.44;5312506;28;20024;-65
2022/11/10 12:41:03;;;;;;;15.38;9.05;;;;;;;14.13;78.02;102262.53;5300035;28;20040;-65
2022/11/10 12:43:42;;;;;;;8.57;3.15;;;;;;;14.03;77.09;102257.78;5311062;28;20105;-65
2022/11/10 12:46:14;;;;;;;9.57;2.60;;;;;;;14.10;78.34;102254.72;5318331;28;20043;-64
2022/11/10 12:49:06;;;;;;;9.48;3.92;;;;;;;14.08;77.74;102256.97;5311039;28;20019;-65
2022/11/10 12:51:49;;;;;;;7.28;2.28;;;;;;;14.06;77.02;102259.19;5324053;28;20118;-64
2022/11/10 12:54:25;;;;;;;11.75;4.30;;;;;;;14.10;76.43;102263.94;5321561;28;20023;-64
2022/11/10 12:57:03;;;;;;;10.73;3.53;;;;;;;14.11;75.81;102250.81;5327267;28;20098;-64
2022/11/10 12:59:55;;;;;;;5.95;2.45;;;;;;;14.12;75.07;102253.34;5326656;28;20028;-64
2022/11/10 13:02:33;;;;;;;9.15;2.28;;;;;;;14.17;74.50;102260.03;5326485;28;20034;-63
2022/11/10 13:05:13;;;;;;;9.02;2.30;;;;;;;14.22;74.87;102262.81;5323807;28;20386;-64
2022/11/10 13:07:50;;;;;;;5.50;2.42;;;;;;;14.27;74.99;102255.28;5327290;28;20028;-64
2022/11/10 13:10:24;;;;;;;9.80;2.47;;;;;;;14.29;73.85;102257.78;5319478;28;20032;-64
2022/11/10 13:13:05;;;;;;;6.95;2.40;;;;;;;14.31;74.66;102258.34;5305348;28;20032;-65
2022/11/10 13:15:36;;;;;;;6.70;3.15;;;;;;;14.32;75.21;102266.44;5305712;28;20097;-65
2022/11/10 13:18:08;;;;;;;7.78;2.83;;;;;;;14.30;74.45;102263.09;5305777;28;20020;-65
2022/11/10 13:20:39;;;;;;;7.03;2.30;;;;;;;14.36;74.80;102263.91;5324626;28;20020;-65
2022/11/10 13:23:30;;;;;;;7.60;2.50;;;;;;;14.40;74.08;102267.00;5327191;28;20493;-65
2022/11/10 13:26:08;;;;;;;9.38;2.70;;;;;;;14.39;73.79;102273.69;5326156;28;21006;-64
2022/11/10 13:28:45;;;;;;;9.02;2.20;;;;;;;14.42;73.56;102273.09;5326468;28;20080;-65
2022/11/10 13:31:50;;;;;;;4.80;2.00;;;;;;;14.46;72.39;102277.84;5326548;28;20035;-65
2022/11/10 13:34:33;;;;;;;6.25;2.25;;;;;;;14.52;72.91;102278.69;5313683;28;20099;-65
2022/11/10 13:37:32;;;;;;;7.70;2.47;;;;;;;14.53;72.80;102269.25;5305223;28;20028;-65
2022/11/10 13:40:15;;;;;;;6.90;2.28;;;;;;;14.61;72.47;102285.41;5304792;28;20035;-64
2022/11/10 13:42:56;;;;;;;5.22;2.10;;;;;;;14.62;71.75;102292.66;5305238;28;20035;-64
2022/11/10 13:45:34;;;;;;;9.13;2.17;;;;;;;14.61;70.40;102288.19;5324409;28;20035;-65
2022/11/10 13:48:08;;;;;;;5.47;2.00;;;;;;;14.68;71.64;102282.34;5323758;28;20056;-64
2022/11/10 13:50:58;;;;;;;6.78;1.95;;;;;;;14.66;70.64;102276.19;5305477;28;20110;-64
2022/11/10 13:54:01;;;;;;;7.38;1.92;;;;;;;14.69;71.22;102265.28;5305277;28;20103;-65
2022/11/10 13:56:52;;;;;;;7.70;2.42;;;;;;;14.66;70.35;102263.06;5304681;28;20085;-64
2022/11/10 13:59:26;;;;;;;6.07;1.88;;;;;;;14.65;70.03;102254.97;5305450;28;20089;-65
2022/11/10 14:02:35;;;;;;;4.60;1.65;;;;;;;14.67;68.92;102253.56;5319141;28;20023;-63
2022/11/10 14:05:28;;;;;;;5.20;1.60;;;;;;;14.62;67.07;102264.72;5325297;28;20043;-63
2022/11/10 14:08:08;;;;;;;3.97;1.40;;;;;;;14.59;66.97;102254.13;5324299;28;20031;-64
2022/11/10 14:10:51;;;;;;;4.95;1.70;;;;;;;14.59;67.23;102256.09;5324060;28;20040;-64
2022/11/10 14:13:31;;;;;;;3.97;1.50;;;;;;;14.53;66.88;102263.66;5326108;28;20080;-64
2022/11/10 14:16:15;;;;;;;6.68;3.03;;;;;;;14.52;67.58;102267.50;5324521;28;20478;-64
2022/11/10 14:18:54;;;;;;;4.70;1.83;;;;;;;14.52;67.48;102267.50;5311998;28;20138;-64
2022/11/10 14:21:36;;;;;;;10.57;2.45;;;;;;;14.62;70.01;102272.28;5304363;28;20028;-64
2022/11/10 14:24:23;;;;;;;4.38;2.15;;;;;;;14.52;68.60;102268.38;5315866;28;20020;-64
2022/11/10 14:27:03;;;;;;;6.38;1.92;;;;;;;14.53;69.84;102275.66;5304429;28;20028;-65
2022/11/10 14:29:39;;;;;;;8.13;1.90;;;;;;;14.57;68.97;102289.88;5316869;28;20023;-64
2022/11/10 14:32:15;;;;;;;2.60;1.50;;;;;;;14.58;68.54;102283.19;5325615;28;20054;-65
2022/11/10 14:34:48;;;;;;;4.43;1.45;;;;;;;14.48;68.67;102267.25;5319983;28;20016;-65
2022/11/10 14:37:23;;;;;;;5.90;1.70;;;;;;;14.43;68.69;102261.69;5303647;28;20525;-64
2022/11/10 14:39:59;;;;;;;8.13;2.10;;;;;;;14.41;68.53;102251.91;5304218;28;20509;-64
2022/11/10 14:42:32;;;;;;;5.38;2.08;;;;;;;14.41;69.04;102244.38;5304047;28;20081;-65
2022/11/10 14:45:05;;;;;;;3.40;1.55;;;;;;;14.38;68.96;102252.47;5302960;28;20103;-64
2022/11/10 14:47:36;;;;;;;4.45;2.75;;;;;;;14.42;70.24;102256.38;5312652;28;20046;-65
2022/11/10 14:50:13;;;;;;;6.47;1.90;;;;;;;14.49;70.56;102268.09;5306805;28;20024;-65
2022/11/10 14:52:48;;;;;;;3.30;1.33;;;;;;;14.34;69.48;102275.38;5316163;28;20539;-65
2022/11/10 14:55:29;;;;;;;7.03;2.00;;;;;;;14.41;70.09;102289.03;5303709;28;20075;-64
2022/11/10 14:58:09;;;;;;;3.28;1.90;;;;;;;14.44;71.51;102282.03;5302834;28;20028;-65
2022/11/10 15:00:42;;;;;;;6.00;2.53;;;;;;;14.31;70.06;102281.50;5307986;28;20107;-64
2022/11/10 15:03:34;;;;;;;8.40;1.83;;;;;;;14.39;71.61;102294.03;5303969;28;20066;-64
2022/11/10 15:06:10;;;;;;;7.15;2.78;;;;;;;14.28;70.25;102296.00;5306211;28;20048;-64
2022/11/10 15:08:42;;;;;;;7.75;2.17;;;;;;;14.25;70.46;102299.38;5318731;28;20027;-64
2022/11/10 15:12:10;;;;;;;3.75;2.42;;;;;;;14.25;70.66;102293.78;5309904;28;20028;-64
2022/11/10 15:14:45;;;;;;;11.88;8.63;;;;;;;14.20;70.64;102292.97;5233690;28;20041;-64
2022/11/10 15:17:19;;;;;;;12.05;7.88;;;;;;;14.29;73.16;102286.53;5218078;28;20104;-63
2022/11/10 15:19:52;;;;;;;5.63;2.50;;;;;;;14.16;71.09;102284.28;5278903;28;20040;-64
2022/11/10 15:22:34;;;;;;;6.88;2.17;;;;;;;14.15;71.22;102291.00;5302168;28;20032;-64
2022/11/10 15:25:18;;;;;;;5.90;2.80;;;;;;;14.09;71.55;102303.28;5310378;28;20428;-64
2022/11/10 15:27:59;;;;;;;4.88;2.00;;;;;;;14.08;72.29;102294.06;5316345;28;20373;-65
2022/11/10 15:30:31;;;;;;;5.65;3.15;;;;;;;14.02;71.30;102295.19;5311361;28;20020;-66
2022/11/10 15:33:09;;;;;;;7.60;2.53;;;;;;;13.99;71.81;102308.84;5306531;28;20393;-65
2022/11/10 15:35:41;;;;;;;6.15;3.55;;;;;;;14.06;72.39;102314.97;5307328;28;20019;-67
2022/11/10 15:38:12;;;;;;;12.77;5.13;;;;;;;13.97;71.85;102316.66;5307817;28;20474;-66
2022/11/10 15:40:51;;;;;;;13.32;6.28;;;;;;;13.98;72.00;102324.72;5306880;28;20074;-65
2022/11/10 15:43:23;;;;;;;10.68;5.30;;;;;;;13.96;73.18;102328.91;5311440;28;20040;-66
2022/11/10 15:46:00;;;;;;;9.13;4.53;;;;;;;13.91;72.22;102325.00;5307093;28;20038;-64
2022/11/10 15:48:47;;;;;;;7.50;3.13;;;;;;;14.11;76.15;102329.78;5309939;28;20110;-64
2022/11/10 15:51:19;;;;;;;6.40;2.70;;;;;;;14.15;75.49;102338.44;5327286;28;20146;-63
2022/11/10 15:53:51;;;;;;;5.57;2.35;;;;;;;13.95;73.74;102333.66;5313609;28;20047;-63
2022/11/10 15:56:24;;;;;;;6.10;2.33;;;;;;;13.98;73.74;102326.69;5318225;28;20107;-65
2022/11/10 15:58:57;;;;;;;4.53;2.58;;;;;;;14.04;76.47;102322.81;5307232;28;20085;-65
2022/11/10 16:01:29;;;;;;;6.57;2.40;;;;;;;13.77;73.70;102317.44;5325868;28;20110;-64
2022/11/10 16:04:01;;;;;;;10.63;2.83;;;;;;;13.67;73.49;102330.25;5315658;28;20356;-64
2022/11/10 16:06:32;;;;;;;13.73;4.60;;;;;;;13.72;74.73;102323.84;5306602;28;20039;-64
2022/11/10 16:09:05;;;;;;;6.32;2.90;;;;;;;13.91;76.66;102330.59;5305978;28;20118;-64
2022/11/10 16:11:37;;;;;;;8.27;4.18;;;;;;;13.92;76.55;102328.63;5308033;28;20019;-64
2022/11/10 16:14:14;;;;;;;6.15;2.22;;;;;;;13.75;74.38;102339.19;5315036;28;20024;-63
2022/11/10 16:16:45;;;;;;;5.55;2.53;;;;;;;13.56;73.56;102327.72;5312458;28;20036;-64
2022/11/10 16:19:16;;;;;;;7.47;2.58;;;;;;;13.69;74.41;102329.97;5306747;28;20032;-63
2022/11/10 16:21:48;;;;;;;9.48;3.92;;;;;;;13.65;74.01;102329.69;5305321;28;20020;-64
2022/11/10 16:24:19;;;;;;;6.35;2.22;;;;;;;13.77;75.77;102325.81;5307843;28;20082;-64
2022/11/10 16:26:50;;;;;;;4.55;2.67;;;;;;;13.69;74.62;102329.97;5305541;28;20081;-65
2022/11/10 16:29:22;;;;;;;7.13;2.00;;;;;;;13.77;76.06;102334.19;5305563;28;20081;-65
2022/11/10 16:31:53;;;;;;;27.65;24.17;;;;;;;13.57;75.09;102323.81;5315573;28;20386;-64
2022/11/10 16:34:24;;;;;;;8.50;5.45;;;;;;;13.63;75.91;102331.91;5320626;28;20027;-65
2022/11/10 16:36:56;;;;;;;6.45;2.42;;;;;;;13.60;74.66;102345.56;5305796;28;20032;-65
